sensor_id;sensor_type;location;lat;lon;timestamp;P1;durP1;ratioP1;P2;durP2;ratioP2
20124;SDS011;10223;50.862;4.360;2023-05-07T00:02:08;11.77;;;3.80;;
20124;SDS011;10223;50.862;4.360;2023-05-07T00:04:35;8.60;;;3.83;;
20124;SDS011;10223;50.862;4.360;2023-05-07T00:07:05;16.93;;;4.00;;
20124;SDS011;10223;50.862;4.360;2023-05-07T00:09:31;11.57;;;3.80;;
20124;SDS011;10223;50.862;4.360;2023-05-07T00:11:58;10.40;;;4.13;;
20124;SDS011;10223;50.862;4.360;2023-05-07T00:14:27;8.87;;;3.87;;
20124;SDS011;10223;50.862;4.360;2023-05-07T00:16:54;9.07;;;3.63;;
20124;SDS011;10223;50.862;4.360;2023-05-07T00:19:21;8.67;;;3.70;;
20124;SDS011;10223;50.862;4.360;2023-05-07T00:21:48;11.97;;;4.03;;
20124;SDS011;10223;50.862;4.360;2023-05-07T00:24:15;10.33;;;4.13;;
20124;SDS011;10223;50.862;4.360;2023-05-07T00:26:42;9.33;;;3.77;;
20124;SDS011;10223;50.862;4.360;2023-05-07T00:29:09;12.47;;;3.70;;
20124;SDS011;10223;50.862;4.360;2023-05-07T00:31:38;7.57;;;3.30;;
20124;SDS011;10223;50.862;4.360;2023-05-07T00:34:05;9.60;;;3.20;;
20124;SDS011;10223;50.862;4.360;2023-05-07T00:36:32;9.33;;;4.13;;
20124;SDS011;10223;50.862;4.360;2023-05-07T00:38:59;6.73;;;3.27;;
20124;SDS011;10223;50.862;4.360;2023-05-07T00:41:28;10.40;;;3.30;;
20124;SDS011;10223;50.862;4.360;2023-05-07T00:43:56;7.03;;;3.63;;
20124;SDS011;10223;50.862;4.360;2023-05-07T00:46:23;13.53;;;3.93;;
20124;SDS011;10223;50.862;4.360;2023-05-07T00:48:52;8.27;;;3.93;;
20124;SDS011;10223;50.862;4.360;2023-05-07T00:51:20;11.23;;;4.00;;
20124;SDS011;10223;50.862;4.360;2023-05-07T00:53:48;12.53;;;4.07;;
20124;SDS011;10223;50.862;4.360;2023-05-07T00:56:15;9.13;;;3.47;;
20124;SDS011;10223;50.862;4.360;2023-05-07T00:58:42;9.97;;;4.30;;
20124;SDS011;10223;50.862;4.360;2023-05-07T01:01:09;9.13;;;3.70;;
20124;SDS011;10223;50.862;4.360;2023-05-07T01:03:36;7.00;;;3.70;;
20124;SDS011;10223;50.862;4.360;2023-05-07T01:06:05;8.40;;;3.50;;
20124;SDS011;10223;50.862;4.360;2023-05-07T01:08:33;8.00;;;3.10;;
20124;SDS011;10223;50.862;4.360;2023-05-07T01:11:01;9.87;;;3.23;;
20124;SDS011;10223;50.862;4.360;2023-05-07T01:13:29;8.57;;;3.50;;
20124;SDS011;10223;50.862;4.360;2023-05-07T01:15:56;11.00;;;4.23;;
20124;SDS011;10223;50.862;4.360;2023-05-07T01:18:23;5.83;;;3.07;;
20124;SDS011;10223;50.862;4.360;2023-05-07T01:20:51;6.43;;;2.87;;
20124;SDS011;10223;50.862;4.360;2023-05-07T01:23:19;8.00;;;3.23;;
20124;SDS011;10223;50.862;4.360;2023-05-07T01:25:50;9.33;;;3.40;;
20124;SDS011;10223;50.862;4.360;2023-05-07T01:28:18;12.73;;;3.50;;
20124;SDS011;10223;50.862;4.360;2023-05-07T01:30:45;8.57;;;3.43;;
20124;SDS011;10223;50.862;4.360;2023-05-07T01:33:27;11.00;;;3.87;;
20124;SDS011;10223;50.862;4.360;2023-05-07T01:35:57;9.67;;;3.90;;
20124;SDS011;10223;50.862;4.360;2023-05-07T01:38:30;10.20;;;3.40;;
20124;SDS011;10223;50.862;4.360;2023-05-07T01:40:57;7.90;;;3.40;;
20124;SDS011;10223;50.862;4.360;2023-05-07T01:43:24;14.90;;;4.00;;
20124;SDS011;10223;50.862;4.360;2023-05-07T01:45:52;9.20;;;3.30;;
20124;SDS011;10223;50.862;4.360;2023-05-07T01:48:19;7.47;;;2.90;;
20124;SDS011;10223;50.862;4.360;2023-05-07T01:50:47;10.23;;;3.60;;
20124;SDS011;10223;50.862;4.360;2023-05-07T01:53:15;8.07;;;2.93;;
20124;SDS011;10223;50.862;4.360;2023-05-07T01:55:43;8.90;;;3.03;;
20124;SDS011;10223;50.862;4.360;2023-05-07T01:58:10;10.70;;;3.23;;
20124;SDS011;10223;50.862;4.360;2023-05-07T02:00:37;10.27;;;3.00;;
20124;SDS011;10223;50.862;4.360;2023-05-07T02:03:04;8.37;;;2.90;;
20124;SDS011;10223;50.862;4.360;2023-05-07T02:05:31;12.17;;;2.93;;
20124;SDS011;10223;50.862;4.360;2023-05-07T02:07:58;14.00;;;3.30;;
20124;SDS011;10223;50.862;4.360;2023-05-07T02:10:25;9.48;;;2.53;;
20124;SDS011;10223;50.862;4.360;2023-05-07T02:12:53;9.47;;;2.90;;
20124;SDS011;10223;50.862;4.360;2023-05-07T02:15:20;7.00;;;2.60;;
20124;SDS011;10223;50.862;4.360;2023-05-07T02:18:02;9.57;;;2.80;;
20124;SDS011;10223;50.862;4.360;2023-05-07T02:20:31;9.25;;;2.05;;
20124;SDS011;10223;50.862;4.360;2023-05-07T02:22:58;9.13;;;2.72;;
20124;SDS011;10223;50.862;4.360;2023-05-07T02:25:25;6.63;;;2.53;;
20124;SDS011;10223;50.862;4.360;2023-05-07T02:27:53;7.10;;;3.03;;
20124;SDS011;10223;50.862;4.360;2023-05-07T02:30:20;9.32;;;3.00;;
20124;SDS011;10223;50.862;4.360;2023-05-07T02:32:47;10.15;;;3.03;;
20124;SDS011;10223;50.862;4.360;2023-05-07T02:35:14;8.75;;;2.80;;
20124;SDS011;10223;50.862;4.360;2023-05-07T02:37:41;7.78;;;3.15;;
20124;SDS011;10223;50.862;4.360;2023-05-07T02:40:09;11.68;;;3.72;;
20124;SDS011;10223;50.862;4.360;2023-05-07T02:42:37;10.32;;;3.05;;
20124;SDS011;10223;50.862;4.360;2023-05-07T02:45:06;9.95;;;4.07;;
20124;SDS011;10223;50.862;4.360;2023-05-07T02:47:34;8.85;;;4.30;;
20124;SDS011;10223;50.862;4.360;2023-05-07T02:50:01;12.68;;;4.85;;
20124;SDS011;10223;50.862;4.360;2023-05-07T02:52:28;11.57;;;3.90;;
20124;SDS011;10223;50.862;4.360;2023-05-07T02:54:55;10.75;;;4.90;;
20124;SDS011;10223;50.862;4.360;2023-05-07T02:57:22;13.23;;;4.82;;
20124;SDS011;10223;50.862;4.360;2023-05-07T02:59:49;13.15;;;5.25;;
20124;SDS011;10223;50.862;4.360;2023-05-07T03:02:17;14.85;;;5.13;;
20124;SDS011;10223;50.862;4.360;2023-05-07T03:04:45;9.65;;;4.28;;
20124;SDS011;10223;50.862;4.360;2023-05-07T03:07:12;10.00;;;3.20;;
20124;SDS011;10223;50.862;4.360;2023-05-07T03:09:39;8.20;;;2.97;;
20124;SDS011;10223;50.862;4.360;2023-05-07T03:12:06;9.00;;;3.47;;
20124;SDS011;10223;50.862;4.360;2023-05-07T03:14:33;10.75;;;3.70;;
20124;SDS011;10223;50.862;4.360;2023-05-07T03:17:00;8.38;;;3.80;;
20124;SDS011;10223;50.862;4.360;2023-05-07T03:19:29;10.30;;;3.70;;
20124;SDS011;10223;50.862;4.360;2023-05-07T03:21:56;9.70;;;3.38;;
20124;SDS011;10223;50.862;4.360;2023-05-07T03:24:23;10.75;;;4.28;;
20124;SDS011;10223;50.862;4.360;2023-05-07T03:26:50;10.15;;;3.65;;
20124;SDS011;10223;50.862;4.360;2023-05-07T03:29:17;11.30;;;3.53;;
20124;SDS011;10223;50.862;4.360;2023-05-07T03:31:44;11.10;;;4.03;;
20124;SDS011;10223;50.862;4.360;2023-05-07T03:34:11;12.70;;;3.97;;
20124;SDS011;10223;50.862;4.360;2023-05-07T03:36:40;10.77;;;4.20;;
20124;SDS011;10223;50.862;4.360;2023-05-07T03:39:07;6.63;;;3.22;;
20124;SDS011;10223;50.862;4.360;2023-05-07T03:41:34;11.40;;;3.72;;
20124;SDS011;10223;50.862;4.360;2023-05-07T03:44:01;9.85;;;3.42;;
20124;SDS011;10223;50.862;4.360;2023-05-07T03:46:27;8.70;;;3.20;;
20124;SDS011;10223;50.862;4.360;2023-05-07T03:48:54;6.43;;;2.92;;
20124;SDS011;10223;50.862;4.360;2023-05-07T03:51:21;9.95;;;3.83;;
20124;SDS011;10223;50.862;4.360;2023-05-07T03:53:50;12.17;;;3.93;;
20124;SDS011;10223;50.862;4.360;2023-05-07T03:56:18;11.23;;;3.88;;
20124;SDS011;10223;50.862;4.360;2023-05-07T03:58:46;10.73;;;4.17;;
20124;SDS011;10223;50.862;4.360;2023-05-07T04:01:13;8.00;;;3.55;;
20124;SDS011;10223;50.862;4.360;2023-05-07T04:03:40;7.78;;;3.55;;
20124;SDS011;10223;50.862;4.360;2023-05-07T04:06:07;8.55;;;3.17;;
20124;SDS011;10223;50.862;4.360;2023-05-07T04:08:34;13.70;;;3.08;;
20124;SDS011;10223;50.862;4.360;2023-05-07T04:11:03;8.38;;;2.88;;
20124;SDS011;10223;50.862;4.360;2023-05-07T04:13:30;11.23;;;4.20;;
20124;SDS011;10223;50.862;4.360;2023-05-07T04:15:57;16.63;;;5.53;;
20124;SDS011;10223;50.862;4.360;2023-05-07T04:18:23;13.15;;;5.68;;
20124;SDS011;10223;50.862;4.360;2023-05-07T04:20:50;8.95;;;5.10;;
20124;SDS011;10223;50.862;4.360;2023-05-07T04:23:17;11.77;;;5.35;;
20124;SDS011;10223;50.862;4.360;2023-05-07T04:25:44;10.35;;;5.20;;
20124;SDS011;10223;50.862;4.360;2023-05-07T04:28:13;7.07;;;3.80;;
20124;SDS011;10223;50.862;4.360;2023-05-07T04:30:40;9.18;;;4.20;;
20124;SDS011;10223;50.862;4.360;2023-05-07T04:33:07;10.43;;;3.85;;
20124;SDS011;10223;50.862;4.360;2023-05-07T04:35:34;6.97;;;3.40;;
20124;SDS011;10223;50.862;4.360;2023-05-07T04:38:01;9.75;;;3.85;;
20124;SDS011;10223;50.862;4.360;2023-05-07T04:40:28;16.30;;;4.47;;
20124;SDS011;10223;50.862;4.360;2023-05-07T04:42:55;8.05;;;3.83;;
20124;SDS011;10223;50.862;4.360;2023-05-07T04:45:24;11.82;;;3.90;;
20124;SDS011;10223;50.862;4.360;2023-05-07T04:47:51;11.45;;;4.38;;
20124;SDS011;10223;50.862;4.360;2023-05-07T04:50:18;13.70;;;4.40;;
20124;SDS011;10223;50.862;4.360;2023-05-07T04:52:45;11.18;;;4.07;;
20124;SDS011;10223;50.862;4.360;2023-05-07T04:55:12;8.80;;;4.00;;
20124;SDS011;10223;50.862;4.360;2023-05-07T04:57:39;10.48;;;3.97;;
20124;SDS011;10223;50.862;4.360;2023-05-07T05:00:06;13.05;;;4.40;;
20124;SDS011;10223;50.862;4.360;2023-05-07T05:02:38;8.75;;;4.72;;
20124;SDS011;10223;50.862;4.360;2023-05-07T05:05:05;13.07;;;5.07;;
20124;SDS011;10223;50.862;4.360;2023-05-07T05:07:32;11.70;;;5.18;;
20124;SDS011;10223;50.862;4.360;2023-05-07T05:09:59;9.93;;;3.83;;
20124;SDS011;10223;50.862;4.360;2023-05-07T05:12:28;16.85;;;4.43;;
20124;SDS011;10223;50.862;4.360;2023-05-07T05:14:55;11.05;;;4.57;;
20124;SDS011;10223;50.862;4.360;2023-05-07T05:17:22;8.65;;;4.80;;
20124;SDS011;10223;50.862;4.360;2023-05-07T05:19:50;12.60;;;4.25;;
20124;SDS011;10223;50.862;4.360;2023-05-07T05:22:17;10.93;;;4.57;;
20124;SDS011;10223;50.862;4.360;2023-05-07T05:24:44;10.35;;;5.18;;
20124;SDS011;10223;50.862;4.360;2023-05-07T05:27:11;9.93;;;4.65;;
20124;SDS011;10223;50.862;4.360;2023-05-07T05:29:38;11.57;;;5.00;;
20124;SDS011;10223;50.862;4.360;2023-05-07T05:32:13;11.57;;;5.50;;
20124;SDS011;10223;50.862;4.360;2023-05-07T05:34:42;12.88;;;5.30;;
20124;SDS011;10223;50.862;4.360;2023-05-07T05:37:11;11.90;;;5.25;;
20124;SDS011;10223;50.862;4.360;2023-05-07T05:39:38;8.38;;;5.00;;
20124;SDS011;10223;50.862;4.360;2023-05-07T05:42:05;9.65;;;4.93;;
20124;SDS011;10223;50.862;4.360;2023-05-07T05:44:32;9.23;;;5.00;;
20124;SDS011;10223;50.862;4.360;2023-05-07T05:47:02;12.10;;;4.45;;
20124;SDS011;10223;50.862;4.360;2023-05-07T05:49:29;12.60;;;4.88;;
20124;SDS011;10223;50.862;4.360;2023-05-07T05:52:02;10.60;;;4.78;;
20124;SDS011;10223;50.862;4.360;2023-05-07T05:54:30;11.65;;;5.00;;
20124;SDS011;10223;50.862;4.360;2023-05-07T05:56:57;13.57;;;5.05;;
20124;SDS011;10223;50.862;4.360;2023-05-07T05:59:24;13.45;;;5.10;;
20124;SDS011;10223;50.862;4.360;2023-05-07T06:01:51;12.50;;;5.15;;
20124;SDS011;10223;50.862;4.360;2023-05-07T06:04:18;11.00;;;4.30;;
20124;SDS011;10223;50.862;4.360;2023-05-07T06:06:45;9.90;;;4.20;;
20124;SDS011;10223;50.862;4.360;2023-05-07T06:09:12;14.07;;;3.95;;
20124;SDS011;10223;50.862;4.360;2023-05-07T06:11:40;10.38;;;4.38;;
20124;SDS011;10223;50.862;4.360;2023-05-07T06:14:07;13.68;;;4.60;;
20124;SDS011;10223;50.862;4.360;2023-05-07T06:16:34;13.98;;;4.47;;
20124;SDS011;10223;50.862;4.360;2023-05-07T06:19:03;10.90;;;3.80;;
20124;SDS011;10223;50.862;4.360;2023-05-07T06:21:29;8.85;;;4.13;;
20124;SDS011;10223;50.862;4.360;2023-05-07T06:23:57;9.38;;;3.72;;
20124;SDS011;10223;50.862;4.360;2023-05-07T06:26:23;10.00;;;3.87;;
20124;SDS011;10223;50.862;4.360;2023-05-07T06:28:52;11.50;;;4.20;;
20124;SDS011;10223;50.862;4.360;2023-05-07T06:31:19;10.03;;;4.33;;
20124;SDS011;10223;50.862;4.360;2023-05-07T06:33:46;12.13;;;4.20;;
20124;SDS011;10223;50.862;4.360;2023-05-07T06:36:14;8.55;;;3.80;;
20124;SDS011;10223;50.862;4.360;2023-05-07T06:38:41;9.73;;;3.92;;
20124;SDS011;10223;50.862;4.360;2023-05-07T06:41:07;9.15;;;3.92;;
20124;SDS011;10223;50.862;4.360;2023-05-07T06:43:35;14.15;;;4.30;;
20124;SDS011;10223;50.862;4.360;2023-05-07T06:46:03;6.93;;;3.47;;
20124;SDS011;10223;50.862;4.360;2023-05-07T06:48:30;12.17;;;3.80;;
20124;SDS011;10223;50.862;4.360;2023-05-07T06:50:57;8.07;;;3.80;;
20124;SDS011;10223;50.862;4.360;2023-05-07T06:53:24;14.00;;;4.28;;
20124;SDS011;10223;50.862;4.360;2023-05-07T06:55:51;11.77;;;4.60;;
20124;SDS011;10223;50.862;4.360;2023-05-07T06:58:19;10.30;;;3.92;;
20124;SDS011;10223;50.862;4.360;2023-05-07T07:00:46;11.25;;;4.28;;
20124;SDS011;10223;50.862;4.360;2023-05-07T07:03:14;10.07;;;3.75;;
20124;SDS011;10223;50.862;4.360;2023-05-07T07:05:41;10.15;;;4.22;;
20124;SDS011;10223;50.862;4.360;2023-05-07T07:08:13;11.38;;;3.67;;
20124;SDS011;10223;50.862;4.360;2023-05-07T07:10:43;9.60;;;3.70;;
20124;SDS011;10223;50.862;4.360;2023-05-07T07:13:09;8.95;;;3.72;;
20124;SDS011;10223;50.862;4.360;2023-05-07T07:15:36;8.95;;;4.03;;
20124;SDS011;10223;50.862;4.360;2023-05-07T07:18:03;11.90;;;3.67;;
20124;SDS011;10223;50.862;4.360;2023-05-07T07:20:32;12.80;;;6.30;;
20124;SDS011;10223;50.862;4.360;2023-05-07T07:22:59;7.47;;;3.55;;
20124;SDS011;10223;50.862;4.360;2023-05-07T07:25:26;10.45;;;3.75;;
20124;SDS011;10223;50.862;4.360;2023-05-07T07:27:53;8.43;;;3.30;;
20124;SDS011;10223;50.862;4.360;2023-05-07T07:30:20;10.13;;;3.88;;
20124;SDS011;10223;50.862;4.360;2023-05-07T07:32:47;9.52;;;3.83;;
20124;SDS011;10223;50.862;4.360;2023-05-07T07:35:14;7.25;;;3.30;;
20124;SDS011;10223;50.862;4.360;2023-05-07T07:37:42;9.90;;;3.38;;
20124;SDS011;10223;50.862;4.360;2023-05-07T07:40:10;5.82;;;2.90;;
20124;SDS011;10223;50.862;4.360;2023-05-07T07:42:38;12.38;;;4.90;;
20124;SDS011;10223;50.862;4.360;2023-05-07T07:45:05;9.75;;;3.28;;
20124;SDS011;10223;50.862;4.360;2023-05-07T07:47:33;8.75;;;3.58;;
20124;SDS011;10223;50.862;4.360;2023-05-07T07:50:00;9.00;;;3.47;;
20124;SDS011;10223;50.862;4.360;2023-05-07T07:52:27;13.80;;;3.95;;
20124;SDS011;10223;50.862;4.360;2023-05-07T07:54:55;8.13;;;3.40;;
20124;SDS011;10223;50.862;4.360;2023-05-07T07:57:22;8.73;;;2.85;;
20124;SDS011;10223;50.862;4.360;2023-05-07T07:59:49;8.50;;;2.97;;
20124;SDS011;10223;50.862;4.360;2023-05-07T08:02:16;8.40;;;3.67;;
20124;SDS011;10223;50.862;4.360;2023-05-07T08:04:43;9.18;;;3.30;;
20124;SDS011;10223;50.862;4.360;2023-05-07T08:07:12;6.80;;;3.55;;
20124;SDS011;10223;50.862;4.360;2023-05-07T08:09:39;18.77;;;11.15;;
20124;SDS011;10223;50.862;4.360;2023-05-07T08:12:08;10.13;;;4.88;;
20124;SDS011;10223;50.862;4.360;2023-05-07T08:14:35;9.18;;;4.40;;
20124;SDS011;10223;50.862;4.360;2023-05-07T08:17:02;9.85;;;3.67;;
20124;SDS011;10223;50.862;4.360;2023-05-07T08:19:29;7.85;;;4.78;;
20124;SDS011;10223;50.862;4.360;2023-05-07T08:21:56;23.98;;;12.43;;
20124;SDS011;10223;50.862;4.360;2023-05-07T08:24:23;11.35;;;5.47;;
20124;SDS011;10223;50.862;4.360;2023-05-07T08:26:50;8.25;;;4.57;;
20124;SDS011;10223;50.862;4.360;2023-05-07T08:29:19;10.55;;;4.63;;
20124;SDS011;10223;50.862;4.360;2023-05-07T08:31:46;9.68;;;3.88;;
20124;SDS011;10223;50.862;4.360;2023-05-07T08:34:13;6.32;;;3.92;;
20124;SDS011;10223;50.862;4.360;2023-05-07T08:36:49;6.70;;;3.58;;
20124;SDS011;10223;50.862;4.360;2023-05-07T08:39:16;7.95;;;3.88;;
20124;SDS011;10223;50.862;4.360;2023-05-07T08:41:46;8.50;;;4.70;;
20124;SDS011;10223;50.862;4.360;2023-05-07T08:44:19;9.50;;;4.25;;
20124;SDS011;10223;50.862;4.360;2023-05-07T08:46:48;9.15;;;5.07;;
20124;SDS011;10223;50.862;4.360;2023-05-07T08:49:24;15.20;;;4.57;;
20124;SDS011;10223;50.862;4.360;2023-05-07T08:51:51;8.05;;;3.70;;
20124;SDS011;10223;50.862;4.360;2023-05-07T08:54:18;11.30;;;5.38;;
20124;SDS011;10223;50.862;4.360;2023-05-07T08:56:47;8.30;;;4.00;;
20124;SDS011;10223;50.862;4.360;2023-05-07T08:59:15;7.75;;;3.97;;
20124;SDS011;10223;50.862;4.360;2023-05-07T09:01:43;9.18;;;3.60;;
20124;SDS011;10223;50.862;4.360;2023-05-07T09:04:10;15.25;;;7.32;;
20124;SDS011;10223;50.862;4.360;2023-05-07T09:06:38;16.02;;;7.60;;
20124;SDS011;10223;50.862;4.360;2023-05-07T09:09:07;8.40;;;5.80;;
20124;SDS011;10223;50.862;4.360;2023-05-07T09:11:34;7.38;;;3.38;;
20124;SDS011;10223;50.862;4.360;2023-05-07T09:14:01;7.38;;;2.75;;
20124;SDS011;10223;50.862;4.360;2023-05-07T09:16:29;6.10;;;3.40;;
20124;SDS011;10223;50.862;4.360;2023-05-07T09:18:58;9.95;;;5.50;;
20124;SDS011;10223;50.862;4.360;2023-05-07T09:21:26;9.52;;;4.95;;
20124;SDS011;10223;50.862;4.360;2023-05-07T09:23:53;9.48;;;4.68;;
20124;SDS011;10223;50.862;4.360;2023-05-07T09:26:21;6.95;;;4.47;;
20124;SDS011;10223;50.862;4.360;2023-05-07T09:28:48;6.43;;;2.85;;
20124;SDS011;10223;50.862;4.360;2023-05-07T09:31:15;7.32;;;3.15;;
20124;SDS011;10223;50.862;4.360;2023-05-07T09:33:42;10.30;;;4.65;;
20124;SDS011;10223;50.862;4.360;2023-05-07T09:36:11;12.90;;;6.82;;
20124;SDS011;10223;50.862;4.360;2023-05-07T09:38:38;9.30;;;5.32;;
20124;SDS011;10223;50.862;4.360;2023-05-07T09:41:07;8.65;;;3.95;;
20124;SDS011;10223;50.862;4.360;2023-05-07T09:43:35;7.45;;;4.28;;
20124;SDS011;10223;50.862;4.360;2023-05-07T09:46:03;11.75;;;4.80;;
20124;SDS011;10223;50.862;4.360;2023-05-07T09:48:37;12.80;;;5.68;;
20124;SDS011;10223;50.862;4.360;2023-05-07T09:51:08;13.25;;;6.40;;
20124;SDS011;10223;50.862;4.360;2023-05-07T09:53:42;12.50;;;4.50;;
20124;SDS011;10223;50.862;4.360;2023-05-07T09:56:12;10.30;;;4.95;;
20124;SDS011;10223;50.862;4.360;2023-05-07T09:58:41;9.38;;;4.95;;
20124;SDS011;10223;50.862;4.360;2023-05-07T10:01:10;10.45;;;5.35;;
20124;SDS011;10223;50.862;4.360;2023-05-07T10:03:38;14.20;;;4.90;;
20124;SDS011;10223;50.862;4.360;2023-05-07T10:06:06;8.57;;;4.10;;
20124;SDS011;10223;50.862;4.360;2023-05-07T10:08:37;10.82;;;5.15;;
20124;SDS011;10223;50.862;4.360;2023-05-07T10:11:04;9.25;;;4.53;;
20124;SDS011;10223;50.862;4.360;2023-05-07T10:13:32;8.18;;;3.92;;
20124;SDS011;10223;50.862;4.360;2023-05-07T10:16:02;8.10;;;4.05;;
20124;SDS011;10223;50.862;4.360;2023-05-07T10:18:30;6.43;;;3.17;;
20124;SDS011;10223;50.862;4.360;2023-05-07T10:21:01;8.13;;;3.47;;
20124;SDS011;10223;50.862;4.360;2023-05-07T10:23:30;8.60;;;3.35;;
20124;SDS011;10223;50.862;4.360;2023-05-07T10:26:00;5.72;;;3.60;;
20124;SDS011;10223;50.862;4.360;2023-05-07T10:28:30;7.35;;;3.22;;
20124;SDS011;10223;50.862;4.360;2023-05-07T10:31:05;7.80;;;3.50;;
20124;SDS011;10223;50.862;4.360;2023-05-07T10:34:01;6.73;;;3.73;;
20124;SDS011;10223;50.862;4.360;2023-05-07T10:36:36;7.57;;;3.33;;
20124;SDS011;10223;50.862;4.360;2023-05-07T10:39:04;9.48;;;3.67;;
20124;SDS011;10223;50.862;4.360;2023-05-07T10:41:35;10.40;;;5.05;;
20124;SDS011;10223;50.862;4.360;2023-05-07T10:44:02;8.70;;;4.43;;
20124;SDS011;10223;50.862;4.360;2023-05-07T10:46:30;9.02;;;4.43;;
20124;SDS011;10223;50.862;4.360;2023-05-07T10:49:06;8.17;;;4.57;;
20124;SDS011;10223;50.862;4.360;2023-05-07T10:51:35;13.88;;;7.95;;
20124;SDS011;10223;50.862;4.360;2023-05-07T10:54:18;10.00;;;4.80;;
20124;SDS011;10223;50.862;4.360;2023-05-07T10:56:47;7.57;;;4.63;;
20124;SDS011;10223;50.862;4.360;2023-05-07T10:59:31;9.55;;;4.57;;
20124;SDS011;10223;50.862;4.360;2023-05-07T11:02:06;8.18;;;4.43;;
20124;SDS011;10223;50.862;4.360;2023-05-07T11:04:35;8.93;;;4.68;;
20124;SDS011;10223;50.862;4.360;2023-05-07T11:07:23;5.55;;;3.00;;
20124;SDS011;10223;50.862;4.360;2023-05-07T11:09:56;7.90;;;3.05;;
20124;SDS011;10223;50.862;4.360;2023-05-07T11:15:33;3.78;;;2.55;;
20124;SDS011;10223;50.862;4.360;2023-05-07T11:18:06;4.22;;;3.40;;
20124;SDS011;10223;50.862;4.360;2023-05-07T11:26:25;7.00;;;3.85;;
20124;SDS011;10223;50.862;4.360;2023-05-07T11:28:55;3.78;;;2.28;;
20124;SDS011;10223;50.862;4.360;2023-05-07T11:31:25;6.38;;;3.25;;
20124;SDS011;10223;50.862;4.360;2023-05-07T11:33:54;9.00;;;4.43;;
20124;SDS011;10223;50.862;4.360;2023-05-07T11:36:22;8.32;;;4.25;;
20124;SDS011;10223;50.862;4.360;2023-05-07T11:38:51;6.22;;;2.28;;
20124;SDS011;10223;50.862;4.360;2023-05-07T11:41:18;5.40;;;2.92;;
20124;SDS011;10223;50.862;4.360;2023-05-07T11:43:58;4.82;;;2.88;;
20124;SDS011;10223;50.862;4.360;2023-05-07T11:46:26;7.13;;;4.50;;
20124;SDS011;10223;50.862;4.360;2023-05-07T11:48:54;4.72;;;2.63;;
20124;SDS011;10223;50.862;4.360;2023-05-07T11:51:22;6.65;;;3.42;;
20124;SDS011;10223;50.862;4.360;2023-05-07T11:53:51;5.40;;;3.20;;
20124;SDS011;10223;50.862;4.360;2023-05-07T11:56:20;9.27;;;3.70;;
20124;SDS011;10223;50.862;4.360;2023-05-07T11:58:47;7.35;;;4.55;;
20124;SDS011;10223;50.862;4.360;2023-05-07T12:01:29;6.03;;;3.60;;
20124;SDS011;10223;50.862;4.360;2023-05-07T12:04:02;8.95;;;4.03;;
20124;SDS011;10223;50.862;4.360;2023-05-07T12:06:30;6.88;;;3.72;;
20124;SDS011;10223;50.862;4.360;2023-05-07T12:08:57;6.22;;;4.15;;
20124;SDS011;10223;50.862;4.360;2023-05-07T12:11:24;10.07;;;4.10;;
20124;SDS011;10223;50.862;4.360;2023-05-07T12:13:53;13.02;;;7.55;;
20124;SDS011;10223;50.862;4.360;2023-05-07T12:16:22;6.13;;;3.38;;
20124;SDS011;10223;50.862;4.360;2023-05-07T12:18:50;10.43;;;5.57;;
20124;SDS011;10223;50.862;4.360;2023-05-07T12:21:20;4.68;;;2.85;;
20124;SDS011;10223;50.862;4.360;2023-05-07T12:23:47;7.30;;;3.58;;
20124;SDS011;10223;50.862;4.360;2023-05-07T12:26:14;4.68;;;2.65;;
20124;SDS011;10223;50.862;4.360;2023-05-07T12:28:43;5.25;;;3.10;;
20124;SDS011;10223;50.862;4.360;2023-05-07T12:31:10;5.38;;;2.80;;
20124;SDS011;10223;50.862;4.360;2023-05-07T12:33:38;8.02;;;3.08;;
20124;SDS011;10223;50.862;4.360;2023-05-07T12:36:06;7.03;;;3.72;;
20124;SDS011;10223;50.862;4.360;2023-05-07T12:38:35;5.38;;;2.97;;
20124;SDS011;10223;50.862;4.360;2023-05-07T12:41:03;9.00;;;3.05;;
20124;SDS011;10223;50.862;4.360;2023-05-07T12:43:32;7.22;;;3.10;;
20124;SDS011;10223;50.862;4.360;2023-05-07T12:46:00;6.30;;;3.50;;
20124;SDS011;10223;50.862;4.360;2023-05-07T12:48:29;7.55;;;3.83;;
20124;SDS011;10223;50.862;4.360;2023-05-07T12:50:59;6.32;;;3.88;;
20124;SDS011;10223;50.862;4.360;2023-05-07T12:53:29;7.82;;;4.97;;
20124;SDS011;10223;50.862;4.360;2023-05-07T12:56:01;5.40;;;3.85;;
20124;SDS011;10223;50.862;4.360;2023-05-07T12:58:29;8.18;;;4.20;;
20124;SDS011;10223;50.862;4.360;2023-05-07T13:00:58;6.47;;;4.15;;
20124;SDS011;10223;50.862;4.360;2023-05-07T13:03:27;6.93;;;5.05;;
20124;SDS011;10223;50.862;4.360;2023-05-07T13:05:54;6.07;;;4.22;;
20124;SDS011;10223;50.862;4.360;2023-05-07T13:08:28;5.15;;;3.42;;
20124;SDS011;10223;50.862;4.360;2023-05-07T13:10:57;7.20;;;3.97;;
20124;SDS011;10223;50.862;4.360;2023-05-07T13:13:25;7.57;;;4.43;;
20124;SDS011;10223;50.862;4.360;2023-05-07T13:15:52;8.00;;;3.92;;
20124;SDS011;10223;50.862;4.360;2023-05-07T13:18:19;7.10;;;4.60;;
20124;SDS011;10223;50.862;4.360;2023-05-07T13:20:46;7.20;;;5.30;;
20124;SDS011;10223;50.862;4.360;2023-05-07T13:23:13;7.72;;;6.25;;
20124;SDS011;10223;50.862;4.360;2023-05-07T13:25:41;6.30;;;5.00;;
20124;SDS011;10223;50.862;4.360;2023-05-07T13:28:08;8.50;;;5.47;;
20124;SDS011;10223;50.862;4.360;2023-05-07T13:30:35;8.30;;;5.78;;
20124;SDS011;10223;50.862;4.360;2023-05-07T13:33:02;6.68;;;5.53;;
20124;SDS011;10223;50.862;4.360;2023-05-07T13:35:30;7.47;;;5.97;;
20124;SDS011;10223;50.862;4.360;2023-05-07T13:37:57;7.03;;;5.78;;
20124;SDS011;10223;50.862;4.360;2023-05-07T13:40:24;14.77;;;10.07;;
20124;SDS011;10223;50.862;4.360;2023-05-07T13:42:52;9.43;;;6.85;;
20124;SDS011;10223;50.862;4.360;2023-05-07T13:45:20;9.27;;;7.00;;
20124;SDS011;10223;50.862;4.360;2023-05-07T13:47:50;11.95;;;7.20;;
20124;SDS011;10223;50.862;4.360;2023-05-07T13:50:20;9.35;;;7.65;;
20124;SDS011;10223;50.862;4.360;2023-05-07T13:52:47;11.23;;;8.30;;
20124;SDS011;10223;50.862;4.360;2023-05-07T13:55:15;10.93;;;8.95;;
20124;SDS011;10223;50.862;4.360;2023-05-07T13:58:19;9.48;;;8.40;;
20124;SDS011;10223;50.862;4.360;2023-05-07T14:00:46;12.60;;;9.15;;
20124;SDS011;10223;50.862;4.360;2023-05-07T14:03:13;12.88;;;10.02;;
20124;SDS011;10223;50.862;4.360;2023-05-07T14:05:40;11.43;;;8.70;;
20124;SDS011;10223;50.862;4.360;2023-05-07T14:08:08;10.57;;;8.93;;
20124;SDS011;10223;50.862;4.360;2023-05-07T14:10:36;11.15;;;9.45;;
20124;SDS011;10223;50.862;4.360;2023-05-07T14:13:03;11.82;;;8.88;;
20124;SDS011;10223;50.862;4.360;2023-05-07T14:15:34;9.63;;;8.48;;
20124;SDS011;10223;50.862;4.360;2023-05-07T14:18:01;21.33;;;14.95;;
20124;SDS011;10223;50.862;4.360;2023-05-07T14:20:29;10.23;;;9.10;;
20124;SDS011;10223;50.862;4.360;2023-05-07T14:22:56;9.98;;;8.52;;
20124;SDS011;10223;50.862;4.360;2023-05-07T14:25:26;10.60;;;8.32;;
20124;SDS011;10223;50.862;4.360;2023-05-07T14:27:53;11.75;;;8.88;;
20124;SDS011;10223;50.862;4.360;2023-05-07T14:30:20;9.90;;;8.48;;
20124;SDS011;10223;50.862;4.360;2023-05-07T14:32:50;12.18;;;9.13;;
20124;SDS011;10223;50.862;4.360;2023-05-07T14:35:17;11.60;;;9.25;;
20124;SDS011;10223;50.862;4.360;2023-05-07T14:37:44;13.20;;;8.07;;
20124;SDS011;10223;50.862;4.360;2023-05-07T14:40:13;11.00;;;8.10;;
20124;SDS011;10223;50.862;4.360;2023-05-07T14:42:41;13.82;;;8.50;;
20124;SDS011;10223;50.862;4.360;2023-05-07T14:45:09;12.57;;;10.20;;
20124;SDS011;10223;50.862;4.360;2023-05-07T14:47:38;10.43;;;8.35;;
20124;SDS011;10223;50.862;4.360;2023-05-07T14:50:07;13.50;;;9.02;;
20124;SDS011;10223;50.862;4.360;2023-05-07T14:52:35;10.95;;;9.00;;
20124;SDS011;10223;50.862;4.360;2023-05-07T14:55:02;13.00;;;10.05;;
20124;SDS011;10223;50.862;4.360;2023-05-07T14:57:38;12.52;;;9.65;;